Time;durP1;ratioP1;P1;durP2;ratioP2;P2;SDS_P1;SDS_P2;PMS_P1;PMS_P2;Temp;Humidity;BMP_temperature;BMP_pressure;BME280_temperature;BME280_humidity;BME280_pressure;Samples;Min_cycle;Max_cycle;Signal;HPM_P1;HPM_P2
2024/04/16 00:01:14;;;;;;;27.27;17.98;;;7.70;50.80;;;;;;5345119;26;19993;-73
2024/04/16 00:03:40;;;;;;;30.42;18.42;;;7.80;62.30;;;;;;5344993;26;20344;-73
2024/04/16 00:06:05;;;;;;;29.98;19.50;;;7.90;72.90;;;;;;5345335;26;20060;-73
2024/04/16 00:08:31;;;;;;;30.50;21.27;;;8.00;88.50;;;;;;5345285;26;20008;-73
2024/04/16 00:11:03;;;;;;;30.65;21.35;;;8.10;99.90;;;;;;5343730;26;20013;-73
2024/04/16 00:13:29;;;;;;;33.20;22.30;;;8.40;99.90;;;;;;5344720;26;19996;-74
2024/04/16 00:15:54;;;;;;;22.67;16.83;;;8.50;99.90;;;;;;5344562;26;20008;-74
2024/04/16 00:18:20;;;;;;;17.73;10.55;;;8.60;99.90;;;;;;5344741;26;20004;-74
2024/04/16 00:20:45;;;;;;;12.70;7.88;;;8.50;1.00;;;;;;5318958;26;19997;-73
2024/04/16 00:23:11;;;;;;;7.70;5.22;;;8.50;99.90;;;;;;5309932;27;19998;-73
2024/04/16 00:25:36;;;;;;;7.05;4.10;;;8.40;99.90;;;;;;5344815;26;20020;-73
2024/04/16 00:28:02;;;;;;;6.40;3.80;;;8.30;1.00;;;;;;5370723;26;20057;-73
2024/04/16 00:30:28;;;;;;;5.07;3.20;;;8.30;1.00;;;;;;5379599;26;20011;-73
2024/04/16 00:32:53;;;;;;;4.47;2.75;;;8.20;99.90;;;;;;5379259;26;20042;-73
2024/04/16 00:35:19;;;;;;;4.57;2.78;;;8.20;99.90;;;;;;5335964;26;19996;-73
2024/04/16 00:37:44;;;;;;;4.57;2.90;;;8.30;99.90;;;;;;5344346;26;20442;-74
2024/04/16 00:40:10;;;;;;;4.15;2.47;;;8.30;99.90;;;;;;5344551;26;20008;-73
2024/04/16 00:42:36;;;;;;;3.78;2.53;;;8.30;45.60;;;;;;5344307;26;20069;-73
2024/04/16 00:45:03;;;;;;;4.65;2.60;;;8.30;26.60;;;;;;5344247;26;19997;-73
2024/04/16 00:47:29;;;;;;;4.47;2.50;;;8.30;16.80;;;;;;5344235;26;20504;-73
2024/04/16 00:49:54;;;;;;;4.43;2.42;;;8.30;2.30;;;;;;5344229;26;20059;-73
2024/04/16 00:52:20;;;;;;;4.70;2.92;;;8.30;1.00;;;;;;5343997;26;19997;-73
2024/04/16 00:54:46;;;;;;;7.05;3.80;;;8.30;1.00;;;;;;5344538;26;20022;-74
2024/04/16 00:57:11;;;;;;;5.97;3.78;;;8.30;1.00;;;;;;5270487;26;20023;-73
2024/04/16 00:59:39;;;;;;;7.28;3.47;;;8.30;1.00;;;;;;5242106;27;20010;-73
2024/04/16 01:02:04;;;;;;;6.95;4.13;;;8.20;1.00;;;;;;5275377;27;19991;-73
2024/04/16 01:04:30;;;;;;;5.95;3.42;;;8.10;1.00;;;;;;5276081;27;20310;-73
2024/04/16 01:06:56;;;;;;;6.07;3.53;;;8.10;14.50;;;;;;5318189;26;20004;-74
2024/04/16 01:09:22;;;;;;;6.72;3.50;;;7.90;32.10;;;;;;5275011;27;19994;-73
2024/04/16 01:11:47;;;;;;;5.10;3.60;;;7.90;41.00;;;;;;5275020;27;19998;-73
2024/04/16 01:14:13;;;;;;;12.18;7.10;;;7.80;63.40;;;;;;5275683;27;20346;-73
2024/04/16 01:16:38;;;;;;;11.18;7.57;;;7.70;89.60;;;;;;5275778;27;20490;-74
2024/04/16 01:19:06;;;;;;;10.57;7.57;;;7.70;99.90;;;;;;5309011;27;20008;-73
2024/04/16 01:21:32;;;;;;;10.23;6.20;;;7.60;99.90;;;;;;5309963;27;20001;-73
2024/04/16 01:23:57;;;;;;;9.40;6.05;;;7.60;99.90;;;;;;5312402;27;19997;-73
2024/04/16 01:26:23;;;;;;;9.35;5.90;;;7.50;99.90;;;;;;5312364;27;20464;-73
2024/04/16 01:28:48;;;;;;;8.82;5.78;;;7.50;99.90;;;;;;5312693;27;20042;-74
2024/04/16 01:31:14;;;;;;;7.82;5.60;;;7.50;99.90;;;;;;5312459;27;20067;-73
2024/04/16 01:33:40;;;;;;;8.45;6.20;;;7.40;99.90;;;;;;5287203;27;20009;-73
2024/04/16 01:36:06;;;;;;;10.10;6.85;;;7.40;99.90;;;;;;5278445;27;20018;-73
2024/04/16 01:38:32;;;;;;;9.23;6.78;;;7.40;99.90;;;;;;5253527;27;20007;-73
2024/04/16 01:40:57;;;;;;;10.00;7.82;;;7.50;99.90;;;;;;5269454;27;19994;-73
2024/04/16 01:43:23;;;;;;;14.02;9.18;;;7.50;99.90;;;;;;5278464;27;20006;-73
2024/04/16 01:45:48;;;;;;;13.50;9.93;;;7.50;99.90;;;;;;5278370;27;19994;-73
2024/04/16 01:48:14;;;;;;;15.85;10.93;;;7.50;99.90;;;;;;5277843;27;20010;-73
2024/04/16 01:50:39;;;;;;;20.50;12.52;;;7.60;1.00;;;;;;5354747;26;19998;-73
2024/04/16 01:53:05;;;;;;;21.38;14.38;;;7.70;61.10;;;;;;5371897;26;20007;-73
2024/04/16 01:55:34;;;;;;;19.73;13.82;;;7.80;99.90;;;;;;5382430;26;20320;-73
2024/04/16 01:57:59;;;;;;;19.35;14.32;;;7.80;99.90;;;;;;5382163;26;20043;-73
2024/04/16 02:00:25;;;;;;;22.23;15.20;;;7.90;99.90;;;;;;5382203;26;19996;-73
2024/04/16 02:02:51;;;;;;;20.70;15.35;;;7.90;99.90;;;;;;5312312;27;19993;-72
2024/04/16 02:05:16;;;;;;;22.20;15.90;;;8.00;99.90;;;;;;5312843;27;20390;-73
2024/04/16 02:07:42;;;;;;;20.60;16.00;;;8.00;99.90;;;;;;5312122;27;20437;-73
2024/04/16 02:10:13;;;;;;;22.45;16.27;;;8.10;99.90;;;;;;5312269;27;19997;-73
2024/04/16 02:12:38;;;;;;;21.98;16.63;;;8.10;99.90;;;;;;5312130;27;19993;-73
2024/04/16 02:15:04;;;;;;;20.88;16.48;;;8.10;99.90;;;;;;5312168;27;20002;-73
2024/04/16 02:17:30;;;;;;;22.80;16.02;;;8.20;99.90;;;;;;5312633;27;19993;-73
2024/04/16 02:19:55;;;;;;;19.55;15.52;;;8.20;99.90;;;;;;5312357;27;20037;-72
2024/04/16 02:22:21;;;;;;;19.50;15.40;;;8.20;99.90;;;;;;5312702;27;20479;-73
2024/04/16 02:24:46;;;;;;;19.25;14.77;;;8.20;99.90;;;;;;5312069;27;20064;-72
2024/04/16 02:27:12;;;;;;;20.25;15.02;;;8.30;99.90;;;;;;5346442;26;20000;-72
2024/04/16 02:29:37;;;;;;;19.75;15.10;;;8.40;99.90;;;;;;5346669;26;19993;-72
2024/04/16 02:32:03;;;;;;;19.17;14.88;;;8.40;99.90;;;;;;5346552;26;20015;-73
2024/04/16 02:34:29;;;;;;;20.08;14.70;;;8.50;99.90;;;;;;5302494;27;20057;-72
2024/04/16 02:36:54;;;;;;;19.92;14.20;;;8.50;99.90;;;;;;5312413;27;19994;-72
2024/04/16 02:39:20;;;;;;;15.98;13.32;;;8.50;99.90;;;;;;5277579;27;20034;-72
2024/04/16 02:41:46;;;;;;;17.88;13.43;;;8.50;99.90;;;;;;5244168;27;20474;-73
2024/04/16 02:44:11;;;;;;;19.05;12.93;;;8.50;99.90;;;;;;5243683;27;19995;-73
2024/04/16 02:46:37;;;;;;;17.00;13.07;;;8.50;99.90;;;;;;5243937;27;20013;-73
2024/04/16 02:49:02;;;;;;;15.70;12.90;;;8.50;66.20;;;;;;5210155;27;20003;-72
2024/04/16 02:51:28;;;;;;;14.95;12.00;;;8.50;1.50;;;;;;5177387;27;20028;-73
2024/04/16 02:53:54;;;;;;;15.18;11.75;;;8.50;1.00;;;;;;5112963;28;19994;-73
2024/04/16 02:56:19;;;;;;;15.63;11.90;;;8.40;1.00;;;;;;5113361;27;20074;-73
2024/04/16 02:58:45;;;;;;;16.98;12.48;;;8.40;1.00;;;;;;5113196;28;20355;-73
2024/04/16 03:01:10;;;;;;;15.52;11.73;;;8.40;1.00;;;;;;5112749;27;20369;-73
2024/04/16 03:03:37;;;;;;;14.13;11.13;;;8.30;1.00;;;;;;5113115;28;19998;-73
2024/04/16 03:06:03;;;;;;;15.75;11.50;;;8.20;1.00;;;;;;5112877;28;20013;-73
2024/04/16 03:08:29;;;;;;;15.65;11.20;;;8.20;1.00;;;;;;5111308;28;19997;-73
2024/04/16 03:10:58;;;;;;;15.15;11.48;;;8.20;1.00;;;;;;5112200;28;20012;-72
2024/04/16 03:13:24;;;;;;;11.60;10.25;;;8.30;1.00;;;;;;5136693;27;20417;-72
2024/04/16 03:15:49;;;;;;;14.80;10.07;;;8.40;1.00;;;;;;5145208;27;20037;-72
2024/04/16 03:18:15;;;;;;;12.38;9.48;;;8.40;1.00;;;;;;5144490;27;20455;-72
2024/04/16 03:20:40;;;;;;;11.18;8.85;;;8.40;99.90;;;;;;5193103;27;19996;-72
2024/04/16 03:23:06;;;;;;;11.10;8.82;;;8.40;99.90;;;;;;5293008;27;20442;-72
2024/04/16 03:25:31;;;;;;;10.55;6.78;;;8.40;99.90;;;;;;5301998;27;20001;-72
2024/04/16 03:27:57;;;;;;;9.20;6.97;;;8.40;99.90;;;;;;5310768;27;19997;-72
2024/04/16 03:30:23;;;;;;;7.78;6.07;;;8.40;99.90;;;;;;5311000;27;20004;-72
2024/04/16 03:32:49;;;;;;;10.70;5.85;;;8.50;99.90;;;;;;5310606;27;20063;-72
2024/04/16 03:35:14;;;;;;;7.03;5.10;;;8.50;63.80;;;;;;5311185;27;20349;-72
2024/04/16 03:37:40;;;;;;;8.05;3.78;;;8.50;12.70;;;;;;5344654;26;20409;-72
2024/04/16 03:40:06;;;;;;;7.53;2.28;;;8.50;1.00;;;;;;5345531;26;20003;-73
2024/04/16 03:42:32;;;;;;;2.30;1.48;;;8.30;99.90;;;;;;5310568;27;20455;-72
2024/04/16 03:44:58;;;;;;;4.40;1.50;;;8.10;99.90;;;;;;5309425;27;20397;-72
2024/04/16 03:47:23;;;;;;;3.38;1.35;;;7.80;1.00;;;;;;5242994;27;20131;-72
2024/04/16 03:49:49;;;;;;;3.60;1.45;;;7.60;99.90;;;;;;5242688;27;20446;-72
2024/04/16 03:52:15;;;;;;;2.92;1.63;;;7.50;99.90;;;;;;5209697;27;19992;-72
2024/04/16 03:54:40;;;;;;;3.97;2.10;;;7.40;99.90;;;;;;5209646;27;19995;-72
2024/04/16 03:57:06;;;;;;;4.10;2.00;;;7.30;99.90;;;;;;5209916;27;20368;-72
2024/04/16 03:59:38;;;;;;;3.47;2.20;;;7.20;99.90;;;;;;5209730;27;19992;-72
2024/04/16 04:02:07;;;;;;;4.18;2.33;;;7.00;99.90;;;;;;5209688;27;20008;-72
2024/04/16 04:04:33;;;;;;;4.18;2.55;;;6.90;12.50;;;;;;5209782;27;19999;-72
2024/04/16 04:06:58;;;;;;;6.70;2.47;;;6.80;69.90;;;;;;5209659;27;20313;-72
2024/04/16 04:09:24;;;;;;;3.90;2.83;;;6.80;40.60;;;;;;5176205;27;19996;-72
2024/04/16 04:11:49;;;;;;;5.25;2.70;;;6.90;86.60;;;;;;5176350;27;20448;-72
2024/04/16 04:14:15;;;;;;;4.00;2.80;;;6.90;91.40;;;;;;5111713;28;20335;-72
2024/04/16 04:16:40;;;;;;;4.68;2.85;;;6.80;40.20;;;;;;5112114;28;20001;-72
2024/04/16 04:19:06;;;;;;;4.50;2.58;;;6.90;42.10;;;;;;5112644;28;20012;-72
2024/04/16 04:21:31;;;;;;;2.80;2.20;;;6.80;99.90;;;;;;5112044;28;20002;-72
2024/04/16 04:23:57;;;;;;;5.82;3.38;;;6.80;99.90;;;;;;5111719;28;20008;-72
2024/04/16 04:26:23;;;;;;;4.57;2.60;;;6.80;99.90;;;;;;5111749;28;20012;-72
2024/04/16 04:28:49;;;;;;;3.67;2.60;;;6.80;99.90;;;;;;5115537;27;20330;-72
2024/04/16 04:31:19;;;;;;;3.97;2.28;;;6.80;99.90;;;;;;5119340;27;20002;-72
2024/04/16 04:33:45;;;;;;;3.38;2.20;;;6.70;99.90;;;;;;5143730;27;20008;-72
2024/04/16 04:36:12;;;;;;;4.45;2.50;;;6.70;93.20;;;;;;5143424;27;19997;-72
2024/04/16 04:38:37;;;;;;;3.80;2.10;;;6.70;1.00;;;;;;5144046;27;20099;-72
2024/04/16 04:41:03;;;;;;;2.63;2.20;;;6.70;99.90;;;;;;5192070;27;20537;-72
2024/04/16 04:43:29;;;;;;;2.90;2.20;;;6.60;99.90;;;;;;5233961;27;19995;-72
2024/04/16 04:45:54;;;;;;;2.80;1.75;;;6.70;99.90;;;;;;5318456;26;20408;-72
2024/04/16 04:48:20;;;;;;;3.72;1.80;;;6.60;99.90;;;;;;5275368;27;20005;-73
2024/04/16 04:50:45;;;;;;;3.17;1.90;;;6.60;99.90;;;;;;5242323;27;19995;-72
2024/04/16 04:53:11;;;;;;;4.45;2.08;;;6.70;99.90;;;;;;5242393;27;20006;-72
2024/04/16 04:55:36;;;;;;;2.90;1.92;;;6.80;99.90;;;;;;5216722;27;19996;-72
2024/04/16 04:58:02;;;;;;;2.97;1.50;;;7.10;99.90;;;;;;5215785;27;20119;-73
2024/04/16 05:00:28;;;;;;;3.53;1.67;;;9.10;1.00;;;;;;5182511;27;19996;-73
2024/04/16 05:02:54;;;;;;;3.75;1.50;;;10.70;1.00;;;;;;5182819;27;19996;-73
2024/04/16 05:05:20;;;;;;;2.38;1.30;;;10.60;1.00;;;;;;5183198;27;19997;-72
2024/04/16 05:07:45;;;;;;;3.30;1.70;;;11.60;99.90;;;;;;5206661;27;20006;-73
2024/04/16 05:10:11;;;;;;;4.80;1.50;;;11.40;99.90;;;;;;5215620;27;20003;-73
2024/04/16 05:12:36;;;;;;;3.47;1.35;;;11.90;1.00;;;;;;5215839;27;19996;-72
2024/04/16 05:15:02;;;;;;;3.08;1.35;;;11.20;1.00;;;;;;5215558;27;19992;-72
2024/04/16 05:17:28;;;;;;;3.17;1.63;;;10.70;1.00;;;;;;5181964;27;20000;-73
2024/04/16 05:19:53;;;;;;;3.30;1.50;;;10.90;1.00;;;;;;5182789;27;20004;-74
2024/04/16 05:22:22;;;;;;;6.05;1.30;;;11.10;1.00;;;;;;5228953;27;20501;-74
2024/04/16 05:24:48;;;;;;;4.25;1.20;;;11.30;1.00;;;;;;5215127;27;20006;-73
2024/04/16 05:27:14;;;;;;;4.70;1.52;;;10.70;99.90;;;;;;5182374;27;20001;-72
2024/04/16 05:29:39;;;;;;;4.43;1.40;;;9.70;99.90;;;;;;5182236;27;20003;-73
2024/04/16 05:32:07;;;;;;;2.95;1.52;;;8.90;99.90;;;;;;5182330;27;20037;-73
2024/04/16 05:34:33;;;;;;;2.42;1.30;;;8.80;1.00;;;;;;5182186;27;20488;-73
2024/04/16 05:36:59;;;;;;;4.70;1.73;;;10.60;1.00;;;;;;5217731;27;19992;-73
2024/04/16 05:39:24;;;;;;;3.85;1.77;;;10.20;99.90;;;;;;5214804;27;20091;-73
2024/04/16 05:41:50;;;;;;;4.50;1.80;;;9.80;1.00;;;;;;5214967;27;19999;-73
2024/04/16 05:44:15;;;;;;;4.80;1.67;;;9.30;1.00;;;;;;5214529;27;20066;-73
2024/04/16 05:46:41;;;;;;;3.80;1.70;;;9.10;99.90;;;;;;5214947;27;20003;-73
2024/04/16 05:49:06;;;;;;;2.80;1.60;;;8.90;1.00;;;;;;5190384;27;19996;-73
2024/04/16 05:51:32;;;;;;;4.07;1.88;;;9.40;1.00;;;;;;5214262;27;19995;-72
2024/04/16 05:53:59;;;;;;;3.60;1.60;;;9.60;1.00;;;;;;5214405;27;20007;-73
2024/04/16 05:56:24;;;;;;;8.57;2.53;;;9.90;99.90;;;;;;5238831;27;20347;-73
2024/04/16 05:58:50;;;;;;;3.95;1.63;;;9.60;1.00;;;;;;5248081;27;20010;-73
2024/04/16 06:01:15;;;;;;;6.95;2.10;;;9.30;99.90;;;;;;5223629;27;20067;-73
2024/04/16 06:03:41;;;;;;;2.97;1.35;;;9.10;1.00;;;;;;5214401;27;19999;-73
2024/04/16 06:06:06;;;;;;;6.13;1.70;;;8.90;1.00;;;;;;5247450;27;20003;-73
2024/04/16 06:08:32;;;;;;;4.10;1.83;;;9.00;1.00;;;;;;5197774;27;20133;-72
2024/04/16 06:10:58;;;;;;;5.53;1.77;;;9.20;99.90;;;;;;5224877;27;19995;-72
2024/04/16 06:13:23;;;;;;;6.05;1.80;;;10.00;99.90;;;;;;5243728;27;19995;-72
2024/04/16 06:15:49;;;;;;;4.85;1.70;;;9.50;99.90;;;;;;5219858;27;20007;-72
2024/04/16 06:18:14;;;;;;;4.50;1.50;;;9.80;99.90;;;;;;5210610;27;20079;-72
2024/04/16 06:20:40;;;;;;;2.65;1.08;;;10.70;99.90;;;;;;5243749;27;20011;-73
2024/04/16 06:23:05;;;;;;;5.00;1.60;;;15.30;99.90;;;;;;5243452;27;20069;-73
2024/04/16 06:25:31;;;;;;;4.70;1.38;;;16.00;1.00;;;;;;5277578;27;19991;-73
2024/04/16 06:27:57;;;;;;;3.35;1.40;;;14.20;1.00;;;;;;5281014;26;20433;-73
2024/04/16 06:30:23;;;;;;;4.72;1.63;;;12.30;1.00;;;;;;5346147;26;20440;-72
2024/04/16 06:32:49;;;;;;;4.20;1.50;;;11.60;1.00;;;;;;5287032;27;19995;-73
2024/04/16 06:35:14;;;;;;;4.80;1.50;;;12.70;1.00;;;;;;5277676;27;19998;-73
2024/04/16 06:37:41;;;;;;;3.50;1.13;;;15.80;1.00;;;;;;5229045;27;20079;-73
2024/04/16 06:40:07;;;;;;;6.63;3.10;;;18.40;1.00;;;;;;5210929;27;20015;-73
2024/04/16 06:42:36;;;;;;;7.55;0.93;;;19.30;1.00;;;;;;5210526;27;20000;-73
2024/04/16 06:45:05;;;;;;;6.03;1.50;;;16.90;1.00;;;;;;5209884;27;20047;-73
2024/04/16 06:47:33;;;;;;;3.03;1.10;;;14.20;1.00;;;;;;5243148;27;19995;-73
2024/04/16 06:50:00;;;;;;;4.70;1.67;;;15.60;1.00;;;;;;5218597;27;20070;-73
2024/04/16 06:52:25;;;;;;;3.83;1.30;;;15.80;1.00;;;;;;5223729;27;20011;-73
2024/04/16 06:54:51;;;;;;;4.80;1.40;;;16.60;1.00;;;;;;5210650;27;19999;-73
2024/04/16 06:57:17;;;;;;;4.72;1.92;;;16.20;1.00;;;;;;5216635;27;20007;-73
2024/04/16 06:59:42;;;;;;;2.42;0.98;;;18.30;1.00;;;;;;5209735;27;19996;-73
2024/04/16 07:02:08;;;;;;;4.13;1.20;;;18.60;1.00;;;;;;5276529;27;20113;-73
2024/04/16 07:04:34;;;;;;;3.45;1.45;;;17.70;1.00;;;;;;5276920;27;20393;-74
2024/04/16 07:06:59;;;;;;;2.63;1.10;;;16.90;1.00;;;;;;5243321;27;19991;-73
2024/04/16 07:09:25;;;;;;;4.38;1.30;;;17.70;1.00;;;;;;5243327;27;20143;-74
2024/04/16 07:11:51;;;;;;;5.47;1.42;;;17.90;1.00;;;;;;5177124;27;19992;-74
2024/04/16 07:14:17;;;;;;;8.38;3.63;;;16.30;1.00;;;;;;5177547;27;20008;-73
2024/04/16 07:16:44;;;;;;;4.50;2.00;;;15.50;1.00;;;;;;5177551;27;20004;-73
2024/04/16 07:19:09;;;;;;;5.43;1.50;;;15.20;1.00;;;;;;5177092;27;20520;-73
2024/04/16 07:21:35;;;;;;;4.25;1.48;;;16.00;1.00;;;;;;5185938;27;20000;-73
2024/04/16 07:24:01;;;;;;;4.35;1.75;;;16.80;99.90;;;;;;5177154;27;20004;-74
2024/04/16 07:26:26;;;;;;;4.07;1.38;;;16.10;1.00;;;;;;5177815;27;20049;-74
2024/04/16 07:28:52;;;;;;;3.35;1.05;;;16.00;1.00;;;;;;5130313;27;20469;-74
2024/04/16 07:31:18;;;;;;;4.45;1.30;;;15.20;1.00;;;;;;5200750;27;19996;-73
2024/04/16 07:33:44;;;;;;;2.30;1.13;;;14.50;1.00;;;;;;5210076;27;20000;-73
2024/04/16 07:36:10;;;;;;;3.28;1.17;;;13.60;99.90;;;;;;5176392;27;20007;-73
2024/04/16 07:38:35;;;;;;;3.67;1.60;;;13.20;99.90;;;;;;5176669;27;20417;-73
2024/04/16 07:41:01;;;;;;;3.60;1.20;;;13.30;99.90;;;;;;5176836;27;19996;-74
2024/04/16 07:43:26;;;;;;;5.03;1.40;;;13.90;1.00;;;;;;5152866;27;20469;-73
2024/04/16 07:45:52;;;;;;;3.80;1.35;;;13.60;1.00;;;;;;5176380;27;20003;-73
2024/04/16 07:48:17;;;;;;;4.82;1.42;;;14.20;99.90;;;;;;5209427;27;20452;-74
2024/04/16 07:50:43;;;;;;;4.75;1.33;;;14.90;1.00;;;;;;5210169;27;20007;-73
2024/04/16 07:53:09;;;;;;;2.97;1.23;;;15.80;1.00;;;;;;5163657;27;19997;-74
2024/04/16 07:55:36;;;;;;;4.57;1.30;;;16.50;1.00;;;;;;5144761;27;20001;-74
2024/04/16 07:58:01;;;;;;;6.07;1.73;;;15.60;1.00;;;;;;5121739;27;19998;-73
2024/04/16 08:00:28;;;;;;;3.80;1.15;;;16.30;1.00;;;;;;5112610;28;20038;-73
2024/04/16 08:02:54;;;;;;;6.85;2.15;;;15.80;1.00;;;;;;5144070;27;19993;-73
2024/04/16 08:05:20;;;;;;;4.88;1.70;;;15.90;1.00;;;;;;5176907;27;20011;-73
2024/04/16 08:07:45;;;;;;;3.08;1.15;;;16.40;1.00;;;;;;5144038;27;20001;-74
2024/04/16 08:10:11;;;;;;;2.83;1.00;;;16.00;1.00;;;;;;5112694;28;20034;-73
2024/04/16 08:12:36;;;;;;;2.83;1.10;;;15.80;1.00;;;;;;5144571;27;20004;-74
2024/04/16 08:15:04;;;;;;;4.95;0.98;;;16.60;99.90;;;;;;5121201;27;19998;-74
2024/04/16 08:17:30;;;;;;;8.95;2.15;;;17.30;99.90;;;;;;5089044;28;20123;-73
2024/04/16 08:19:55;;;;;;;5.80;1.33;;;17.50;99.90;;;;;;5103803;28;20028;-73
2024/04/16 08:22:21;;;;;;;2.67;1.00;;;16.70;99.90;;;;;;5112205;28;20002;-73
2024/04/16 08:24:50;;;;;;;3.90;1.17;;;16.60;99.90;;;;;;5080466;28;20027;-73
2024/04/16 08:27:15;;;;;;;3.45;0.98;;;15.60;99.90;;;;;;5080419;28;20271;-73
2024/04/16 08:29:41;;;;;;;3.80;1.00;;;14.20;99.90;;;;;;5048987;28;19996;-73
2024/04/16 08:32:06;;;;;;;3.40;1.00;;;13.60;99.90;;;;;;5048438;28;20014;-72
2024/04/16 08:34:38;;;;;;;7.28;1.15;;;13.20;99.90;;;;;;5095755;28;20002;-73
2024/04/16 08:37:03;;;;;;;3.25;1.10;;;12.90;99.90;;;;;;5111923;28;20327;-73
2024/04/16 08:39:29;;;;;;;3.80;1.00;;;13.30;99.90;;;;;;5111525;28;19998;-73
2024/04/16 08:41:59;;;;;;;4.53;1.20;;;13.40;99.90;;;;;;5136544;27;20026;-73
2024/04/16 08:44:26;;;;;;;3.95;1.08;;;13.20;99.90;;;;;;5143666;27;19997;-72
2024/04/16 08:46:56;;;;;;;3.08;1.10;;;13.10;99.90;;;;;;5163577;27;20049;-72
2024/04/16 08:49:23;;;;;;;4.07;1.20;;;13.20;99.90;;;;;;5175715;27;20499;-73
2024/04/16 08:55:11;;;;;;;5.15;1.50;;;13.20;99.90;;;;;;5190340;27;20002;-72
2024/04/16 08:57:40;;;;;;;2.00;1.10;;;13.40;99.90;;;;;;5209612;27;20027;-73
2024/04/16 09:00:06;;;;;;;3.97;1.33;;;13.70;99.90;;;;;;5208606;27;20075;-73
2024/04/16 09:02:33;;;;;;;3.33;1.20;;;13.80;99.90;;;;;;5176022;27;20024;-73
2024/04/16 09:04:59;;;;;;;3.08;1.48;;;13.30;99.90;;;;;;5176165;27;20012;-73
2024/04/16 09:07:27;;;;;;;3.83;1.45;;;12.70;99.90;;;;;;5175753;27;20397;-73
2024/04/16 09:09:52;;;;;;;5.15;1.60;;;12.60;99.90;;;;;;5176374;27;20001;-72
2024/04/16 09:12:18;;;;;;;9.50;1.85;;;12.30;99.90;;;;;;5175454;27;20355;-73
2024/04/16 09:14:44;;;;;;;3.53;1.25;;;11.90;99.90;;;;;;5111150;28;20400;-73
2024/04/16 09:17:15;;;;;;;4.93;1.33;;;11.70;99.90;;;;;;5053846;28;19999;-72
2024/04/16 09:19:41;;;;;;;4.85;1.42;;;11.70;99.90;;;;;;5079485;28;20003;-73
2024/04/16 09:22:07;;;;;;;5.35;1.90;;;11.50;99.90;;;;;;5085002;28;20012;-72
2024/04/16 09:24:33;;;;;;;3.88;1.73;;;11.50;99.90;;;;;;5111366;28;20179;-72
2024/04/16 09:26:59;;;;;;;6.45;1.85;;;11.20;99.90;;;;;;5111003;28;20010;-72
2024/04/16 09:29:28;;;;;;;4.57;1.50;;;10.90;99.90;;;;;;5137052;27;20012;-72
2024/04/16 09:32:00;;;;;;;5.57;1.88;;;10.90;99.90;;;;;;5143157;27;20073;-74
2024/04/16 09:34:26;;;;;;;3.90;1.40;;;10.80;99.90;;;;;;5199242;27;20067;-74
2024/04/16 09:36:52;;;;;;;8.43;1.67;;;10.80;99.90;;;;;;5240982;27;20007;-73
2024/04/16 09:39:20;;;;;;;4.95;1.85;;;11.10;99.90;;;;;;5241959;27;20453;-73
2024/04/16 09:41:48;;;;;;;3.58;1.40;;;11.00;99.90;;;;;;5174851;27;20011;-73
2024/04/16 09:44:15;;;;;;;3.60;1.15;;;10.80;99.90;;;;;;5177124;27;20429;-72
2024/04/16 09:46:43;;;;;;;4.22;1.05;;;10.30;99.90;;;;;;5236277;27;20399;-74
2024/04/16 09:49:09;;;;;;;3.25;1.20;;;10.00;99.90;;;;;;5274292;27;19999;-74
2024/04/16 09:51:37;;;;;;;6.25;1.98;;;10.00;99.90;;;;;;5278175;27;20485;-73
2024/04/16 09:54:03;;;;;;;4.45;1.45;;;9.90;99.90;;;;;;5368493;26;20000;-72
2024/04/16 09:56:33;;;;;;;6.65;1.80;;;9.80;1.00;;;;;;5381755;26;20436;-73
2024/04/16 09:58:59;;;;;;;5.70;1.70;;;10.00;1.00;;;;;;5382755;26;20015;-73
2024/04/16 10:01:27;;;;;;;2.63;1.20;;;10.20;1.00;;;;;;5381900;26;20016;-73
2024/04/16 10:03:54;;;;;;;5.47;2.13;;;10.50;1.00;;;;;;5381719;26;20130;-73
2024/04/16 10:06:19;;;;;;;9.75;2.55;;;10.70;1.00;;;;;;5381401;26;20039;-74
2024/04/16 10:08:45;;;;;;;4.32;2.00;;;10.80;1.00;;;;;;5351589;26;19993;-74
2024/04/16 10:11:11;;;;;;;6.60;2.22;;;10.90;1.00;;;;;;5346279;26;19992;-73
2024/04/16 10:13:38;;;;;;;4.90;2.45;;;11.20;1.00;;;;;;5375819;26;19996;-72
2024/04/16 10:16:11;;;;;;;5.63;2.42;;;11.00;1.00;;;;;;5381465;26;20054;-72
2024/04/16 10:18:36;;;;;;;4.63;2.13;;;11.00;1.00;;;;;;5381852;26;20000;-73
2024/04/16 10:21:02;;;;;;;8.15;2.50;;;10.60;1.00;;;;;;5381221;26;19996;-73
2024/04/16 10:23:29;;;;;;;4.90;1.90;;;10.20;1.00;;;;;;5381185;26;19999;-72
2024/04/16 10:25:56;;;;;;;5.35;2.00;;;10.10;1.00;;;;;;5381166;26;20031;-73
2024/04/16 10:28:28;;;;;;;4.15;1.90;;;9.80;1.00;;;;;;5346086;26;20134;-73
2024/04/16 10:30:59;;;;;;;8.63;2.25;;;9.80;1.00;;;;;;5346882;26;20004;-74
2024/04/16 10:33:31;;;;;;;3.70;1.38;;;10.00;1.00;;;;;;5247493;27;20450;-74
2024/04/16 10:35:57;;;;;;;10.05;4.18;;;10.30;1.00;;;;;;5210774;27;20004;-73
2024/04/16 10:38:24;;;;;;;8.73;3.22;;;10.40;1.00;;;;;;5210312;27;20075;-73
2024/04/16 10:40:57;;;;;;;7.75;2.85;;;10.70;1.00;;;;;;5243609;27;20327;-73
2024/04/16 10:43:26;;;;;;;8.07;2.50;;;11.10;1.00;;;;;;5243381;27;20364;-73
2024/04/16 10:45:53;;;;;;;6.75;2.35;;;11.00;1.00;;;;;;5243504;27;20094;-73
2024/04/16 10:48:19;;;;;;;4.30;1.45;;;10.80;1.00;;;;;;5243424;27;20042;-73
2024/04/16 10:50:45;;;;;;;3.33;1.30;;;11.00;1.00;;;;;;5243983;27;19995;-72
2024/04/16 10:53:15;;;;;;;4.30;1.88;;;10.90;1.00;;;;;;5178575;27;20508;-72
2024/04/16 10:55:41;;;;;;;4.88;1.70;;;10.70;1.00;;;;;;5176503;27;20039;-72
2024/04/16 10:58:08;;;;;;;4.28;1.50;;;10.60;1.00;;;;;;5178099;27;20048;-72
2024/04/16 11:00:34;;;;;;;6.22;1.70;;;10.40;1.00;;;;;;5157124;27;20000;-72
2024/04/16 11:03:01;;;;;;;3.97;1.40;;;10.40;1.00;;;;;;5209510;27;20007;-72
2024/04/16 11:05:26;;;;;;;3.58;1.02;;;10.30;1.00;;;;;;5269776;27;20006;-72
2024/04/16 11:07:52;;;;;;;4.57;1.73;;;10.40;1.00;;;;;;5276944;27;20005;-72
2024/04/16 11:10:18;;;;;;;4.75;1.40;;;10.40;1.00;;;;;;5277058;27;19998;-73
2024/04/16 11:12:44;;;;;;;5.47;1.35;;;10.80;1.00;;;;;;5310884;27;20379;-72
2024/04/16 11:15:09;;;;;;;3.53;1.17;;;11.10;1.00;;;;;;5223851;27;20003;-72
2024/04/16 11:17:35;;;;;;;3.25;1.13;;;11.00;1.00;;;;;;5203715;27;20040;-72
2024/04/16 11:20:02;;;;;;;5.50;1.20;;;10.80;1.00;;;;;;5177089;27;19996;-72
2024/04/16 11:22:28;;;;;;;3.83;1.55;;;10.80;1.00;;;;;;5209740;27;19992;-72
2024/04/16 11:24:54;;;;;;;6.03;1.30;;;10.60;1.00;;;;;;5234878;27;20018;-72
2024/04/16 11:27:19;;;;;;;12.93;5.97;;;10.40;1.00;;;;;;5119682;27;19998;-73
2024/04/16 11:29:49;;;;;;;11.93;6.53;;;10.20;1.00;;;;;;5048766;28;19995;-73
2024/04/16 11:32:20;;;;;;;6.82;1.95;;;10.20;1.00;;;;;;5073321;28;20101;-73
2024/04/16 11:34:46;;;;;;;7.65;2.90;;;10.30;1.00;;;;;;5049917;28;20412;-73
2024/04/16 11:37:13;;;;;;;6.70;2.60;;;10.40;1.00;;;;;;5112200;28;20515;-73
2024/04/16 11:39:43;;;;;;;6.40;2.00;;;10.30;1.00;;;;;;5111960;28;20336;-73
2024/04/16 11:42:10;;;;;;;4.97;1.75;;;10.30;1.00;;;;;;5111980;28;20002;-73
2024/04/16 11:44:37;;;;;;;6.00;1.55;;;10.20;1.00;;;;;;5080217;28;20044;-73
2024/04/16 11:47:03;;;;;;;5.10;1.88;;;10.20;1.00;;;;;;5107423;28;20002;-73
2024/04/16 11:49:30;;;;;;;10.20;5.63;;;10.10;1.00;;;;;;5111956;28;20008;-73
2024/04/16 11:51:56;;;;;;;7.07;3.20;;;10.00;1.00;;;;;;5112633;28;20008;-73
2024/04/16 11:54:21;;;;;;;7.13;3.15;;;10.10;1.00;;;;;;5112432;28;20002;-72
2024/04/16 11:56:47;;;;;;;7.40;2.30;;;10.20;1.00;;;;;;5081070;28;19999;-73
2024/04/16 11:59:12;;;;;;;10.60;4.88;;;10.20;1.00;;;;;;5054506;28;20010;-73
2024/04/16 12:01:38;;;;;;;5.43;2.30;;;10.30;1.00;;;;;;5075893;28;20003;-73
2024/04/16 12:04:05;;;;;;;8.23;3.88;;;10.30;1.00;;;;;;5080506;28;19998;-73
2024/04/16 12:06:31;;;;;;;6.90;3.03;;;10.40;1.00;;;;;;5135883;27;20031;-73
2024/04/16 12:08:56;;;;;;;7.88;2.83;;;9.90;99.90;;;;;;5119183;27;20002;-73
2024/04/16 12:11:22;;;;;;;6.35;2.83;;;9.80;1.00;;;;;;5080361;28;19995;-73
2024/04/16 12:13:47;;;;;;;6.95;2.70;;;9.90;1.00;;;;;;5127772;27;20005;-73
2024/04/16 12:16:13;;;;;;;23.65;14.70;;;10.00;1.00;;;;;;5167854;27;20333;-72
2024/04/16 12:18:38;;;;;;;6.07;2.60;;;10.10;1.00;;;;;;5144035;27;20417;-73
2024/04/16 12:21:04;;;;;;;3.78;1.55;;;10.20;1.00;;;;;;5144100;27;20293;-72
2024/04/16 12:23:31;;;;;;;5.93;1.60;;;10.00;1.00;;;;;;5176557;27;20432;-73
2024/04/16 12:25:57;;;;;;;12.73;2.20;;;10.20;1.00;;;;;;5176827;27;20011;-73
2024/04/16 12:28:23;;;;;;;3.75;1.90;;;10.60;1.00;;;;;;5176757;27;20000;-74
2024/04/16 12:30:49;;;;;;;4.20;1.60;;;11.20;1.00;;;;;;5176684;27;19996;-73
2024/04/16 12:33:14;;;;;;;4.43;1.90;;;11.00;1.00;;;;;;5176358;27;20076;-74
2024/04/16 12:35:40;;;;;;;4.07;2.00;;;11.10;1.00;;;;;;5249465;27;20042;-73
2024/04/16 12:38:05;;;;;;;4.93;1.88;;;11.30;1.00;;;;;;5252244;27;20006;-73
2024/04/16 12:40:31;;;;;;;4.35;1.80;;;11.30;1.00;;;;;;5242636;27;19999;-74
2024/04/16 12:42:56;;;;;;;4.47;1.70;;;11.10;1.00;;;;;;5291061;27;20578;-74
2024/04/16 12:45:22;;;;;;;5.25;2.05;;;10.80;1.00;;;;;;5285000;27;20002;-74
2024/04/16 12:47:48;;;;;;;5.57;2.25;;;11.10;1.00;;;;;;5275677;27;19994;-73
2024/04/16 12:50:13;;;;;;;8.10;2.22;;;11.70;1.00;;;;;;5325077;26;19993;-73